sensor_id;sensor_type;location;lat;lon;timestamp;pressure;altitude;pressure_sealevel;temperature;humidity
77299;BME280;66361;52.034;20.656;2023-11-19T00:02:54;100463.44;;;0.17;100.00
77299;BME280;66361;52.034;20.656;2023-11-19T00:07:02;100463.41;;;0.19;100.00
77299;BME280;66361;52.034;20.656;2023-11-19T00:11:06;100465.13;;;0.20;100.00
77299;BME280;66361;52.034;20.656;2023-11-19T00:15:10;100453.06;;;0.16;100.00
77299;BME280;66361;52.034;20.656;2023-11-19T00:19:15;100454.75;;;0.18;100.00
77299;BME280;66361;52.034;20.656;2023-11-19T00:23:19;100448.63;;;0.22;100.00
77299;BME280;66361;52.034;20.656;2023-11-19T00:27:22;100455.59;;;0.20;100.00
77299;BME280;66361;52.034;20.656;2023-11-19T00:31:30;100450.41;;;0.20;100.00
77299;BME280;66361;52.034;20.656;2023-11-19T00:35:38;100432.25;;;0.20;100.00
77299;BME280;66361;52.034;20.656;2023-11-19T00:39:43;100428.72;;;0.24;100.00
77299;BME280;66361;52.034;20.656;2023-11-19T00:43:47;100413.94;;;0.26;100.00
77299;BME280;66361;52.034;20.656;2023-11-19T00:47:50;100407.03;;;0.25;100.00
77299;BME280;66361;52.034;20.656;2023-11-19T00:51:55;100398.44;;;0.25;100.00
77299;BME280;66361;52.034;20.656;2023-11-19T00:55:58;100397.56;;;0.24;100.00
77299;BME280;66361;52.034;20.656;2023-11-19T01:00:02;100389.78;;;0.23;100.00
77299;BME280;66361;52.034;20.656;2023-11-19T01:04:11;100376.75;;;0.26;100.00
77299;BME280;66361;52.034;20.656;2023-11-19T01:08:15;100376.81;;;0.24;100.00
77299;BME280;66361;52.034;20.656;2023-11-19T01:12:19;100369.88;;;0.25;100.00
77299;BME280;66361;52.034;20.656;2023-11-19T01:16:22;100357.72;;;0.27;100.00
77299;BME280;66361;52.034;20.656;2023-11-19T01:20:25;100356.84;;;0.28;100.00
77299;BME280;66361;52.034;20.656;2023-11-19T01:24:30;100356.84;;;0.26;100.00
77299;BME280;66361;52.034;20.656;2023-11-19T01:28:33;100361.16;;;0.29;100.00
77299;BME280;66361;52.034;20.656;2023-11-19T01:32:36;100363.75;;;0.27;100.00
77299;BME280;66361;52.034;20.656;2023-11-19T01:36:39;100356.00;;;0.26;100.00
77299;BME280;66361;52.034;20.656;2023-11-19T01:40:44;100346.47;;;0.26;100.00
77299;BME280;66361;52.034;20.656;2023-11-19T01:44:57;100341.31;;;0.25;100.00
77299;BME280;66361;52.034;20.656;2023-11-19T01:49:02;100341.28;;;0.26;100.00
77299;BME280;66361;52.034;20.656;2023-11-19T01:53:07;100341.25;;;0.28;100.00
77299;BME280;66361;52.034;20.656;2023-11-19T01:57:12;100324.91;;;0.24;100.00
77299;BME280;66361;52.034;20.656;2023-11-19T02:01:16;100316.25;;;0.24;100.00
77299;BME280;66361;52.034;20.656;2023-11-19T02:05:20;100325.78;;;0.23;100.00
77299;BME280;66361;52.034;20.656;2023-11-19T02:09:27;100318.03;;;0.20;100.00
77299;BME280;66361;52.034;20.656;2023-11-19T02:13:33;100300.69;;;0.22;100.00
77299;BME280;66361;52.034;20.656;2023-11-19T02:17:38;100292.94;;;0.21;100.00
77299;BME280;66361;52.034;20.656;2023-11-19T02:21:41;100305.88;;;0.24;100.00
77299;BME280;66361;52.034;20.656;2023-11-19T02:25:47;100311.06;;;0.22;100.00
77299;BME280;66361;52.034;20.656;2023-11-19T02:29:56;100286.81;;;0.25;100.00
77299;BME280;66361;52.034;20.656;2023-11-19T02:34:00;100283.38;;;0.23;100.00
77299;BME280;66361;52.034;20.656;2023-11-19T02:38:04;100282.44;;;0.27;100.00
77299;BME280;66361;52.034;20.656;2023-11-19T02:42:09;100277.19;;;0.30;100.00
77299;BME280;66361;52.034;20.656;2023-11-19T02:46:14;100272.84;;;0.30;100.00
77299;BME280;66361;52.034;20.656;2023-11-19T02:50:20;100260.72;;;0.31;100.00
77299;BME280;66361;52.034;20.656;2023-11-19T02:54:27;100247.81;;;0.28;100.00
77299;BME280;66361;52.034;20.656;2023-11-19T02:58:33;100241.78;;;0.27;100.00
77299;BME280;66361;52.034;20.656;2023-11-19T03:02:39;100235.66;;;0.30;100.00
77299;BME280;66361;52.034;20.656;2023-11-19T03:06:46;100222.66;;;0.31;100.00
77299;BME280;66361;52.034;20.656;2023-11-19T03:10:50;100223.59;;;0.29;100.00
77299;BME280;66361;52.034;20.656;2023-11-19T03:14:54;100227.00;;;0.31;100.00
77299;BME280;66361;52.034;20.656;2023-11-19T03:18:59;100216.53;;;0.34;100.00
77299;BME280;66361;52.034;20.656;2023-11-19T03:23:03;100199.22;;;0.34;100.00
77299;BME280;66361;52.034;20.656;2023-11-19T03:27:07;100198.34;;;0.35;100.00
77299;BME280;66361;52.034;20.656;2023-11-19T03:31:10;100182.78;;;0.34;100.00
77299;BME280;66361;52.034;20.656;2023-11-19T03:35:15;100170.69;;;0.34;100.00
77299;BME280;66361;52.034;20.656;2023-11-19T03:39:18;100154.25;;;0.34;100.00
77299;BME280;66361;52.034;20.656;2023-11-19T03:43:22;100164.63;;;0.34;100.00
77299;BME280;66361;52.034;20.656;2023-11-19T03:47:25;100162.09;;;0.32;100.00
77299;BME280;66361;52.034;20.656;2023-11-19T03:51:32;100146.53;;;0.31;100.00
77299;BME280;66361;52.034;20.656;2023-11-19T03:55:36;100137.88;;;0.32;100.00
77299;BME280;66361;52.034;20.656;2023-11-19T03:59:39;100135.34;;;0.29;100.00
77299;BME280;66361;52.034;20.656;2023-11-19T04:03:42;100137.78;;;0.35;100.00
77299;BME280;66361;52.034;20.656;2023-11-19T04:07:49;100124.03;;;0.31;100.00
77299;BME280;66361;52.034;20.656;2023-11-19T04:11:53;100113.59;;;0.33;100.00
77299;BME280;66361;52.034;20.656;2023-11-19T04:15:56;100130.00;;;0.35;100.00
77299;BME280;66361;52.034;20.656;2023-11-19T04:19:59;100119.47;;;0.41;100.00
77299;BME280;66361;52.034;20.656;2023-11-19T04:24:05;100104.75;;;0.41;100.00
77299;BME280;66361;52.034;20.656;2023-11-19T04:28:08;100095.31;;;0.39;100.00
77299;BME280;66361;52.034;20.656;2023-11-19T04:32:12;100097.06;;;0.37;100.00
77299;BME280;66361;52.034;20.656;2023-11-19T04:36:18;100097.03;;;0.40;100.00
77299;BME280;66361;52.034;20.656;2023-11-19T04:40:23;100090.91;;;0.41;100.00
77299;BME280;66361;52.034;20.656;2023-11-19T04:44:28;100086.59;;;0.41;100.00
77299;BME280;66361;52.034;20.656;2023-11-19T04:48:32;100071.06;;;0.40;100.00
77299;BME280;66361;52.034;20.656;2023-11-19T04:52:40;100061.56;;;0.39;100.00
77299;BME280;66361;52.034;20.656;2023-11-19T04:56:48;100052.06;;;0.38;100.00
77299;BME280;66361;52.034;20.656;2023-11-19T05:00:51;100058.97;;;0.39;100.00
77299;BME280;66361;52.034;20.656;2023-11-19T05:04:54;100056.38;;;0.39;100.00
77299;BME280;66361;52.034;20.656;2023-11-19T05:08:59;100054.63;;;0.39;100.00
77299;BME280;66361;52.034;20.656;2023-11-19T05:13:09;100045.97;;;0.39;100.00
77299;BME280;66361;52.034;20.656;2023-11-19T05:17:14;100034.75;;;0.38;100.00
77299;BME280;66361;52.034;20.656;2023-11-19T05:21:19;100036.47;;;0.38;100.00
77299;BME280;66361;52.034;20.656;2023-11-19T05:25:23;100028.66;;;0.39;100.00
77299;BME280;66361;52.034;20.656;2023-11-19T05:29:28;100021.75;;;0.38;100.00
77299;BME280;66361;52.034;20.656;2023-11-19T05:33:31;100024.38;;;0.37;100.00
77299;BME280;66361;52.034;20.656;2023-11-19T05:37:34;100027.84;;;0.37;100.00
77299;BME280;66361;52.034;20.656;2023-11-19T05:41:37;100029.72;;;0.32;100.00
77299;BME280;66361;52.034;20.656;2023-11-19T05:45:42;100017.50;;;0.36;100.00
77299;BME280;66361;52.034;20.656;2023-11-19T05:49:45;100009.72;;;0.36;100.00
77299;BME280;66361;52.034;20.656;2023-11-19T05:53:48;100011.41;;;0.37;100.00
77299;BME280;66361;52.034;20.656;2023-11-19T05:57:51;99999.34;;;0.36;100.00
77299;BME280;66361;52.034;20.656;2023-11-19T06:01:57;100007.13;;;0.36;100.00
77299;BME280;66361;52.034;20.656;2023-11-19T06:06:01;100004.56;;;0.34;100.00
77299;BME280;66361;52.034;20.656;2023-11-19T06:10:04;100005.41;;;0.35;100.00
77299;BME280;66361;52.034;20.656;2023-11-19T06:14:08;100003.78;;;0.31;100.00
77299;BME280;66361;52.034;20.656;2023-11-19T06:18:15;99998.59;;;0.31;100.00
77299;BME280;66361;52.034;20.656;2023-11-19T06:22:18;99994.97;;;0.36;100.00
77299;BME280;66361;52.034;20.656;2023-11-19T06:26:21;99991.56;;;0.34;100.00
77299;BME280;66361;52.034;20.656;2023-11-19T06:30:25;99985.53;;;0.34;100.00
77299;BME280;66361;52.034;20.656;2023-11-19T06:34:31;99969.94;;;0.34;100.00
77299;BME280;66361;52.034;20.656;2023-11-19T06:38:34;99957.03;;;0.32;100.00
77299;BME280;66361;52.034;20.656;2023-11-19T06:42:37;99960.44;;;0.34;100.00
77299;BME280;66361;52.034;20.656;2023-11-19T06:46:41;99963.81;;;0.36;100.00
77299;BME280;66361;52.034;20.656;2023-11-19T06:50:45;99957.66;;;0.40;100.00
77299;BME280;66361;52.034;20.656;2023-11-19T06:54:48;99953.31;;;0.42;100.00
77299;BME280;66361;52.034;20.656;2023-11-19T06:58:50;99944.63;;;0.43;100.00
77299;BME280;66361;52.034;20.656;2023-11-19T07:02:53;99927.28;;;0.44;100.00
77299;BME280;66361;52.034;20.656;2023-11-19T07:06:58;99938.88;;;0.32;100.00
77299;BME280;66361;52.034;20.656;2023-11-19T07:11:02;99929.88;;;0.45;100.00
77299;BME280;66361;52.034;20.656;2023-11-19T07:15:06;99933.19;;;0.50;100.00
77299;BME280;66361;52.034;20.656;2023-11-19T07:19:10;99924.38;;;0.56;100.00
77299;BME280;66361;52.034;20.656;2023-11-19T07:23:14;99923.47;;;0.59;100.00
77299;BME280;66361;52.034;20.656;2023-11-19T07:27:18;99905.31;;;0.57;100.00
77299;BME280;66361;52.034;20.656;2023-11-19T07:31:21;99901.47;;;0.72;100.00
77299;BME280;66361;52.034;20.656;2023-11-19T07:35:25;99889.94;;;0.82;100.00
77299;BME280;66361;52.034;20.656;2023-11-19T07:39:30;99894.97;;;0.88;100.00
77299;BME280;66361;52.034;20.656;2023-11-19T07:43:33;99891.31;;;0.95;100.00
77299;BME280;66361;52.034;20.656;2023-11-19T07:47:36;99883.28;;;1.03;100.00
77299;BME280;66361;52.034;20.656;2023-11-19T07:51:40;99872.16;;;0.97;100.00
77299;BME280;66361;52.034;20.656;2023-11-19T07:55:44;99869.31;;;1.07;100.00
77299;BME280;66361;52.034;20.656;2023-11-19T07:59:47;99869.22;;;1.10;100.00
77299;BME280;66361;52.034;20.656;2023-11-19T08:03:50;99869.97;;;1.13;100.00
77299;BME280;66361;52.034;20.656;2023-11-19T08:07:56;99866.75;;;1.05;100.00
77299;BME280;66361;52.034;20.656;2023-11-19T08:12:01;99861.56;;;1.05;100.00
77299;BME280;66361;52.034;20.656;2023-11-19T08:16:05;99855.41;;;1.08;100.00
77299;BME280;66361;52.034;20.656;2023-11-19T08:20:08;99840.31;;;1.20;100.00
77299;BME280;66361;52.034;20.656;2023-11-19T08:24:12;99836.25;;;1.39;100.00
77299;BME280;66361;52.034;20.656;2023-11-19T08:28:16;99826.59;;;1.44;100.00
77299;BME280;66361;52.034;20.656;2023-11-19T08:32:19;99816.88;;;1.49;100.00
77299;BME280;66361;52.034;20.656;2023-11-19T08:36:22;99834.03;;;1.55;100.00
77299;BME280;66361;52.034;20.656;2023-11-19T08:40:25;99827.09;;;1.56;100.00
77299;BME280;66361;52.034;20.656;2023-11-19T08:44:30;99818.31;;;1.60;100.00
77299;BME280;66361;52.034;20.656;2023-11-19T08:48:33;99816.50;;;1.62;100.00
77299;BME280;66361;52.034;20.656;2023-11-19T08:52:36;99807.94;;;1.58;100.00
77299;BME280;66361;52.034;20.656;2023-11-19T08:56:39;99797.13;;;1.44;100.00
77299;BME280;66361;52.034;20.656;2023-11-19T09:00:43;99787.25;;;1.55;100.00
77299;BME280;66361;52.034;20.656;2023-11-19T09:04:46;99779.22;;;1.61;100.00
77299;BME280;66361;52.034;20.656;2023-11-19T09:08:52;99776.13;;;1.50;100.00
77299;BME280;66361;52.034;20.656;2023-11-19T09:13:00;99768.19;;;1.55;100.00
77299;BME280;66361;52.034;20.656;2023-11-19T09:17:05;99764.00;;;1.49;100.00
77299;BME280;66361;52.034;20.656;2023-11-19T09:21:10;99746.56;;;1.53;100.00
77299;BME280;66361;52.034;20.656;2023-11-19T09:25:13;99738.94;;;1.48;100.00
77299;BME280;66361;52.034;20.656;2023-11-19T09:29:18;99732.06;;;1.45;100.00
77299;BME280;66361;52.034;20.656;2023-11-19T09:33:25;99730.91;;;1.54;100.00
77299;BME280;66361;52.034;20.656;2023-11-19T09:37:28;99728.31;;;1.54;100.00
77299;BME280;66361;52.034;20.656;2023-11-19T09:41:32;99723.22;;;1.51;100.00
77299;BME280;66361;52.034;20.656;2023-11-19T09:45:47;99711.19;;;1.48;100.00
77299;BME280;66361;52.034;20.656;2023-11-19T09:49:52;99709.22;;;1.29;100.00
77299;BME280;66361;52.034;20.656;2023-11-19T09:53:59;99699.97;;;1.46;100.00
77299;BME280;66361;52.034;20.656;2023-11-19T09:58:01;99689.63;;;1.45;100.00
77299;BME280;66361;52.034;20.656;2023-11-19T10:02:04;99683.91;;;1.34;100.00
77299;BME280;66361;52.034;20.656;2023-11-19T10:06:13;99679.50;;;1.37;100.00
77299;BME280;66361;52.034;20.656;2023-11-19T10:10:17;99676.97;;;1.34;100.00
77299;BME280;66361;52.034;20.656;2023-11-19T10:14:23;99675.31;;;1.32;100.00
77299;BME280;66361;52.034;20.656;2023-11-19T10:18:26;99672.47;;;1.39;100.00
77299;BME280;66361;52.034;20.656;2023-11-19T10:22:31;99667.91;;;1.46;100.00
77299;BME280;66361;52.034;20.656;2023-11-19T10:26:40;99660.09;;;1.46;100.00
77299;BME280;66361;52.034;20.656;2023-11-19T10:30:44;99651.47;;;1.45;100.00
77299;BME280;66361;52.034;20.656;2023-11-19T10:34:47;99646.97;;;1.51;100.00
77299;BME280;66361;52.034;20.656;2023-11-19T10:38:56;99638.31;;;1.75;100.00
77299;BME280;66361;52.034;20.656;2023-11-19T10:43:02;99615.88;;;1.95;100.00
77299;BME280;66361;52.034;20.656;2023-11-19T10:47:08;99605.06;;;2.06;100.00
77299;BME280;66361;52.034;20.656;2023-11-19T10:51:13;99594.09;;;1.98;100.00
77299;BME280;66361;52.034;20.656;2023-11-19T10:55:27;99591.44;;;2.00;100.00
77299;BME280;66361;52.034;20.656;2023-11-19T10:59:31;99575.78;;;2.01;100.00
77299;BME280;66361;52.034;20.656;2023-11-19T11:03:39;99561.28;;;1.94;100.00
77299;BME280;66361;52.034;20.656;2023-11-19T11:07:44;99552.81;;;1.89;100.00
77299;BME280;66361;52.034;20.656;2023-11-19T11:11:50;99543.88;;;1.73;100.00
77299;BME280;66361;52.034;20.656;2023-11-19T11:15:55;99537.81;;;1.72;100.00
77299;BME280;66361;52.034;20.656;2023-11-19T11:20:00;99524.22;;;1.64;100.00
77299;BME280;66361;52.034;20.656;2023-11-19T11:28:40;99520.72;;;1.65;100.00
77299;BME280;66361;52.034;20.656;2023-11-19T11:32:56;99498.47;;;1.58;100.00
77299;BME280;66361;52.034;20.656;2023-11-19T11:37:10;99483.72;;;1.59;100.00
77299;BME280;66361;52.034;20.656;2023-11-19T11:41:20;99482.56;;;1.66;100.00
77299;BME280;66361;52.034;20.656;2023-11-19T11:45:37;99478.16;;;1.68;100.00
77299;BME280;66361;52.034;20.656;2023-11-19T11:49:44;99468.59;;;1.68;100.00
77299;BME280;66361;52.034;20.656;2023-11-19T11:53:48;99458.84;;;1.75;100.00
77299;BME280;66361;52.034;20.656;2023-11-19T11:57:54;99451.97;;;1.72;100.00
77299;BME280;66361;52.034;20.656;2023-11-19T12:01:59;99448.22;;;1.79;100.00
77299;BME280;66361;52.034;20.656;2023-11-19T12:06:02;99444.91;;;1.76;100.00
77299;BME280;66361;52.034;20.656;2023-11-19T12:10:07;99437.63;;;1.62;100.00
77299;BME280;66361;52.034;20.656;2023-11-19T12:14:12;99422.44;;;1.52;100.00
77299;BME280;66361;52.034;20.656;2023-11-19T12:18:18;99430.81;;;1.60;100.00
77299;BME280;66361;52.034;20.656;2023-11-19T12:22:24;99416.16;;;1.57;100.00
77299;BME280;66361;52.034;20.656;2023-11-19T12:26:34;99426.09;;;1.46;100.00
77299;BME280;66361;52.034;20.656;2023-11-19T12:30:38;99418.09;;;1.52;100.00
77299;BME280;66361;52.034;20.656;2023-11-19T12:34:42;99417.44;;;1.45;100.00
77299;BME280;66361;52.034;20.656;2023-11-19T12:38:46;99414.13;;;1.42;100.00
77299;BME280;66361;52.034;20.656;2023-11-19T12:42:49;99403.69;;;1.43;100.00
77299;BME280;66361;52.034;20.656;2023-11-19T12:47:02;99402.13;;;1.38;100.00
77299;BME280;66361;52.034;20.656;2023-11-19T12:51:07;99398.34;;;1.46;100.00
77299;BME280;66361;52.034;20.656;2023-11-19T12:55:27;99372.59;;;1.40;100.00
77299;BME280;66361;52.034;20.656;2023-11-19T12:59:32;99371.75;;;1.40;100.00
77299;BME280;66361;52.034;20.656;2023-11-19T13:03:36;99361.41;;;1.38;100.00
77299;BME280;66361;52.034;20.656;2023-11-19T13:07:42;99353.84;;;1.32;100.00
77299;BME280;66361;52.034;20.656;2023-11-19T13:11:45;99337.06;;;1.41;100.00
77299;BME280;66361;52.034;20.656;2023-11-19T13:15:48;99340.00;;;1.32;100.00
77299;BME280;66361;52.034;20.656;2023-11-19T13:19:51;99319.03;;;1.36;100.00
77299;BME280;66361;52.034;20.656;2023-11-19T13:23:56;99322.47;;;1.37;100.00
77299;BME280;66361;52.034;20.656;2023-11-19T13:28:00;99308.03;;;1.30;100.00
77299;BME280;66361;52.034;20.656;2023-11-19T13:32:03;99307.19;;;1.29;100.00
77299;BME280;66361;52.034;20.656;2023-11-19T13:36:08;99301.31;;;1.24;100.00
77299;BME280;66361;52.034;20.656;2023-11-19T13:40:16;99287.97;;;1.33;100.00
77299;BME280;66361;52.034;20.656;2023-11-19T13:44:21;99269.22;;;1.25;100.00
77299;BME280;66361;52.034;20.656;2023-11-19T13:48:24;99270.00;;;1.27;100.00
77299;BME280;66361;52.034;20.656;2023-11-19T13:52:28;99262.19;;;1.27;100.00
77299;BME280;66361;52.034;20.656;2023-11-19T13:56:32;99255.84;;;1.34;100.00
77299;BME280;66361;52.034;20.656;2023-11-19T14:00:36;99252.22;;;1.38;100.00
77299;BME280;66361;52.034;20.656;2023-11-19T14:04:39;99252.59;;;1.29;100.00
77299;BME280;66361;52.034;20.656;2023-11-19T14:08:44;99246.28;;;1.35;100.00
77299;BME280;66361;52.034;20.656;2023-11-19T14:12:50;99243.22;;;1.25;100.00
77299;BME280;66361;52.034;20.656;2023-11-19T14:16:53;99231.47;;;1.15;100.00
77299;BME280;66361;52.034;20.656;2023-11-19T14:21:14;99232.34;;;1.16;100.00
77299;BME280;66361;52.034;20.656;2023-11-19T14:25:17;99226.41;;;1.12;100.00
77299;BME280;66361;52.034;20.656;2023-11-19T14:29:22;99222.88;;;1.15;100.00
77299;BME280;66361;52.034;20.656;2023-11-19T14:33:25;99223.94;;;1.09;100.00
77299;BME280;66361;52.034;20.656;2023-11-19T14:37:28;99227.34;;;1.11;100.00
77299;BME280;66361;52.034;20.656;2023-11-19T14:41:32;99225.13;;;1.00;100.00
77299;BME280;66361;52.034;20.656;2023-11-19T14:45:37;99219.31;;;0.95;100.00
77299;BME280;66361;52.034;20.656;2023-11-19T14:49:50;99210.47;;;0.99;100.00
77299;BME280;66361;52.034;20.656;2023-11-19T14:53:53;99209.81;;;0.94;100.00
77299;BME280;66361;52.034;20.656;2023-11-19T14:57:56;99209.19;;;0.88;100.00
77299;BME280;66361;52.034;20.656;2023-11-19T15:02:11;99198.00;;;0.86;100.00
77299;BME280;66361;52.034;20.656;2023-11-19T15:06:14;99184.25;;;0.84;100.00
77299;BME280;66361;52.034;20.656;2023-11-19T15:10:17;99188.56;;;0.85;100.00
77299;BME280;66361;52.034;20.656;2023-11-19T15:14:20;99195.25;;;0.90;100.00
77299;BME280;66361;52.034;20.656;2023-11-19T15:18:25;99192.81;;;0.86;100.00
77299;BME280;66361;52.034;20.656;2023-11-19T15:22:29;99199.88;;;0.82;100.00
77299;BME280;66361;52.034;20.656;2023-11-19T15:26:33;99197.16;;;0.85;100.00
77299;BME280;66361;52.034;20.656;2023-11-19T15:30:37;99188.44;;;0.88;100.00
77299;BME280;66361;52.034;20.656;2023-11-19T15:34:41;99196.25;;;0.86;100.00
77299;BME280;66361;52.034;20.656;2023-11-19T15:38:44;99198.63;;;0.92;100.00
77299;BME280;66361;52.034;20.656;2023-11-19T15:42:50;99199.53;;;0.91;100.00
77299;BME280;66361;52.034;20.656;2023-11-19T15:46:55;99190.28;;;0.84;100.00
77299;BME280;66361;52.034;20.656;2023-11-19T15:51:00;99186.13;;;0.80;100.00
77299;BME280;66361;52.034;20.656;2023-11-19T15:55:04;99184.38;;;0.81;100.00
77299;BME280;66361;52.034;20.656;2023-11-19T15:59:07;99172.22;;;0.81;100.00
77299;BME280;66361;52.034;20.656;2023-11-19T16:03:11;99168.66;;;0.84;100.00
77299;BME280;66361;52.034;20.656;2023-11-19T16:07:17;99160.94;;;0.82;100.00
77299;BME280;66361;52.034;20.656;2023-11-19T16:11:21;99163.59;;;0.81;100.00
77299;BME280;66361;52.034;20.656;2023-11-19T16:15:25;99160.41;;;0.96;100.00
77299;BME280;66361;52.034;20.656;2023-11-19T16:19:31;99150.22;;;0.90;100.00
77299;BME280;66361;52.034;20.656;2023-11-19T16:23:37;99152.97;;;0.87;100.00
77299;BME280;66361;52.034;20.656;2023-11-19T16:27:41;99145.22;;;0.85;100.00
77299;BME280;66361;52.034;20.656;2023-11-19T16:31:44;99156.56;;;0.83;100.00
77299;BME280;66361;52.034;20.656;2023-11-19T16:35:47;99147.16;;;0.80;100.00
77299;BME280;66361;52.034;20.656;2023-11-19T16:39:52;99145.13;;;0.88;100.00
77299;BME280;66361;52.034;20.656;2023-11-19T16:43:55;99135.03;;;0.81;100.00
77299;BME280;66361;52.034;20.656;2023-11-19T16:48:03;99137.50;;;0.84;100.00
77299;BME280;66361;52.034;20.656;2023-11-19T16:52:08;99139.97;;;0.87;100.00
77299;BME280;66361;52.034;20.656;2023-11-19T16:56:13;99124.81;;;0.76;100.00
77299;BME280;66361;52.034;20.656;2023-11-19T17:00:16;99122.22;;;0.76;100.00
77299;BME280;66361;52.034;20.656;2023-11-19T17:04:21;99116.91;;;0.79;100.00
77299;BME280;66361;52.034;20.656;2023-11-19T17:08:27;99112.69;;;0.77;100.00
77299;BME280;66361;52.034;20.656;2023-11-19T17:12:35;99106.47;;;0.81;100.00
77299;BME280;66361;52.034;20.656;2023-11-19T17:16:38;99105.50;;;0.83;100.00
77299;BME280;66361;52.034;20.656;2023-11-19T17:20:42;99094.25;;;0.83;100.00
77299;BME280;66361;52.034;20.656;2023-11-19T17:24:45;99098.69;;;0.81;100.00
77299;BME280;66361;52.034;20.656;2023-11-19T17:28:49;99109.53;;;0.90;100.00
77299;BME280;66361;52.034;20.656;2023-11-19T17:32:53;99096.72;;;0.86;100.00
77299;BME280;66361;52.034;20.656;2023-11-19T17:36:56;99082.47;;;0.96;100.00
77299;BME280;66361;52.034;20.656;2023-11-19T17:40:59;99085.97;;;0.95;100.00
77299;BME280;66361;52.034;20.656;2023-11-19T17:45:04;99075.72;;;0.92;100.00
77299;BME280;66361;52.034;20.656;2023-11-19T17:49:07;99076.66;;;0.89;100.00
77299;BME280;66361;52.034;20.656;2023-11-19T17:53:11;99070.56;;;0.90;100.00
77299;BME280;66361;52.034;20.656;2023-11-19T17:57:14;99068.28;;;0.83;100.00
77299;BME280;66361;52.034;20.656;2023-11-19T18:01:19;99062.06;;;0.87;100.00
77299;BME280;66361;52.034;20.656;2023-11-19T18:05:23;99069.97;;;0.84;100.00
77299;BME280;66361;52.034;20.656;2023-11-19T18:09:26;99075.00;;;0.88;100.00
77299;BME280;66361;52.034;20.656;2023-11-19T18:13:29;99063.94;;;0.83;100.00
77299;BME280;66361;52.034;20.656;2023-11-19T18:17:36;99055.25;;;0.84;100.00
77299;BME280;66361;52.034;20.656;2023-11-19T18:21:44;99055.44;;;0.80;100.00
77299;BME280;66361;52.034;20.656;2023-11-19T18:25:47;99046.84;;;0.78;100.00
77299;BME280;66361;52.034;20.656;2023-11-19T18:29:52;99042.44;;;0.80;100.00
77299;BME280;66361;52.034;20.656;2023-11-19T18:33:56;99034.66;;;0.80;100.00
77299;BME280;66361;52.034;20.656;2023-11-19T18:38:00;99030.03;;;0.86;100.00
77299;BME280;66361;52.034;20.656;2023-11-19T18:42:05;99025.16;;;0.79;100.00
77299;BME280;66361;52.034;20.656;2023-11-19T18:46:08;99019.84;;;0.82;100.00
77299;BME280;66361;52.034;20.656;2023-11-19T18:50:13;99013.75;;;0.83;100.00
77299;BME280;66361;52.034;20.656;2023-11-19T18:54:17;99019.06;;;0.80;100.00
77299;BME280;66361;52.034;20.656;2023-11-19T18:58:23;99016.38;;;0.81;100.00
77299;BME280;66361;52.034;20.656;2023-11-19T19:02:26;99011.09;;;0.84;100.00
77299;BME280;66361;52.034;20.656;2023-11-19T19:06:31;99003.88;;;0.91;100.00
77299;BME280;66361;52.034;20.656;2023-11-19T19:10:34;99003.16;;;0.87;100.00
77299;BME280;66361;52.034;20.656;2023-11-19T19:14:40;99006.63;;;0.88;100.00
77299;BME280;66361;52.034;20.656;2023-11-19T19:18:45;99007.66;;;0.84;100.00
77299;BME280;66361;52.034;20.656;2023-11-19T19:22:50;99001.47;;;0.86;100.00
77299;BME280;66361;52.034;20.656;2023-11-19T19:26:54;99001.41;;;0.88;100.00
77299;BME280;66361;52.034;20.656;2023-11-19T19:30:57;98993.50;;;0.91;100.00
77299;BME280;66361;52.034;20.656;2023-11-19T19:35:01;98989.19;;;0.90;100.00
77299;BME280;66361;52.034;20.656;2023-11-19T19:39:06;98992.13;;;0.82;100.00
77299;BME280;66361;52.034;20.656;2023-11-19T19:43:15;98989.34;;;0.87;100.00
77299;BME280;66361;52.034;20.656;2023-11-19T19:47:18;98974.59;;;0.87;100.00
77299;BME280;66361;52.034;20.656;2023-11-19T19:51:22;98972.56;;;0.94;100.00
77299;BME280;66361;52.034;20.656;2023-11-19T19:55:26;98961.41;;;0.92;100.00
77299;BME280;66361;52.034;20.656;2023-11-19T19:59:30;98949.56;;;1.05;100.00
77299;BME280;66361;52.034;20.656;2023-11-19T20:03:35;98951.78;;;0.94;100.00
77299;BME280;66361;52.034;20.656;2023-11-19T20:07:39;98950.09;;;0.93;100.00
77299;BME280;66361;52.034;20.656;2023-11-19T20:11:43;98952.63;;;0.94;100.00
77299;BME280;66361;52.034;20.656;2023-11-19T20:15:49;98962.69;;;1.02;100.00
77299;BME280;66361;52.034;20.656;2023-11-19T20:19:54;98950.88;;;0.95;100.00
77299;BME280;66361;52.034;20.656;2023-11-19T20:23:57;98948.28;;;0.95;100.00
77299;BME280;66361;52.034;20.656;2023-11-19T20:28:02;98954.47;;;0.92;100.00
77299;BME280;66361;52.034;20.656;2023-11-19T20:32:06;98952.13;;;0.86;100.00
77299;BME280;66361;52.034;20.656;2023-11-19T20:36:11;98952.06;;;0.88;100.00
77299;BME280;66361;52.034;20.656;2023-11-19T20:40:16;98948.72;;;1.05;100.00
77299;BME280;66361;52.034;20.656;2023-11-19T20:44:22;98943.09;;;0.95;100.00
77299;BME280;66361;52.034;20.656;2023-11-19T20:48:26;98937.06;;;0.94;100.00
77299;BME280;66361;52.034;20.656;2023-11-19T20:52:29;98932.84;;;0.92;100.00
77299;BME280;66361;52.034;20.656;2023-11-19T20:56:32;98930.13;;;0.95;100.00
77299;BME280;66361;52.034;20.656;2023-11-19T21:00:37;98931.59;;;1.00;100.00
77299;BME280;66361;52.034;20.656;2023-11-19T21:04:46;98914.25;;;1.01;100.00
77299;BME280;66361;52.034;20.656;2023-11-19T21:08:49;98918.75;;;0.97;100.00
77299;BME280;66361;52.034;20.656;2023-11-19T21:12:52;98914.53;;;0.95;100.00
77299;BME280;66361;52.034;20.656;2023-11-19T21:16:57;98922.38;;;0.93;100.00
77299;BME280;66361;52.034;20.656;2023-11-19T21:21:00;98911.47;;;1.06;100.00